Time;durP1;ratioP1;P1;durP2;ratioP2;P2;SDS_P1;SDS_P2;PMS_P1;PMS_P2;Temp;Humidity;BMP_temperature;BMP_pressure;BME280_temperature;BME280_humidity;BME280_pressure;Samples;Min_cycle;Max_cycle;Signal;HPM_P1;HPM_P2
2022/07/15 00:01:12;;;;;;;7.25;1.70;;;14.90;99.90;;;;;;5019358;23;20044;-59
2022/07/15 00:03:38;;;;;;;12.50;2.30;;;14.90;99.90;;;;;;5037166;28;20032;-59
2022/07/15 00:06:03;;;;;;;9.48;1.70;;;14.90;99.90;;;;;;5065574;28;20058;-60
2022/07/15 00:08:29;;;;;;;11.35;2.53;;;14.90;99.90;;;;;;5062125;28;20037;-58
2022/07/15 00:10:55;;;;;;;10.93;2.10;;;14.90;99.90;;;;;;5059949;28;20050;-60
2022/07/15 00:13:23;;;;;;;4.50;1.50;;;14.90;99.90;;;;;;5067444;28;20389;-60
2022/07/15 00:15:49;;;;;;;11.52;2.40;;;15.00;99.90;;;;;;5066432;28;20057;-60
2022/07/15 00:18:15;;;;;;;8.73;2.08;;;15.00;99.90;;;;;;5054048;28;20051;-59
2022/07/15 00:20:41;;;;;;;9.75;2.33;;;15.00;99.90;;;;;;5062392;28;20039;-59
2022/07/15 00:23:07;;;;;;;10.40;1.95;;;15.00;99.90;;;;;;5072981;28;20068;-59
2022/07/15 00:25:34;;;;;;;8.35;1.70;;;15.10;99.90;;;;;;5065409;28;20075;-59
2022/07/15 00:28:02;;;;;;;10.73;2.25;;;15.00;99.90;;;;;;5070732;28;20037;-59
2022/07/15 00:30:30;;;;;;;11.13;1.92;;;15.10;99.90;;;;;;5071879;28;20032;-60
2022/07/15 00:32:56;;;;;;;7.45;1.92;;;15.10;99.90;;;;;;5071108;28;20040;-60
2022/07/15 00:35:22;;;;;;;8.65;1.88;;;15.10;99.90;;;;;;5073236;28;20044;-60
2022/07/15 00:37:47;;;;;;;6.50;1.77;;;15.10;99.90;;;;;;5069464;28;20135;-59
2022/07/15 00:40:13;;;;;;;7.65;1.70;;;15.10;99.90;;;;;;5074407;28;20495;-59
2022/07/15 00:42:45;;;;;;;12.68;2.22;;;15.10;99.90;;;;;;5079588;28;20075;-60
2022/07/15 00:45:16;;;;;;;7.80;1.80;;;15.10;99.90;;;;;;5058970;28;20656;-58
2022/07/15 00:47:47;;;;;;;10.63;2.33;;;15.00;99.90;;;;;;5069958;28;20433;-58
2022/07/15 00:50:13;;;;;;;10.77;2.17;;;15.00;99.90;;;;;;5067124;28;20048;-60
2022/07/15 00:52:41;;;;;;;6.45;1.40;;;15.00;99.90;;;;;;5070433;28;20033;-59
2022/07/15 00:55:10;;;;;;;9.55;2.10;;;15.00;99.90;;;;;;5072539;28;20040;-59
2022/07/15 00:57:39;;;;;;;5.88;1.52;;;15.00;99.90;;;;;;5077617;28;20086;-60
2022/07/15 01:00:06;;;;;;;10.57;2.22;;;14.90;99.90;;;;;;5072498;28;20119;-59
2022/07/15 01:02:33;;;;;;;8.07;1.65;;;14.90;99.90;;;;;;5066837;28;20036;-60
2022/07/15 01:05:03;;;;;;;10.70;1.50;;;14.80;99.90;;;;;;5069172;28;20059;-59
2022/07/15 01:07:29;;;;;;;7.22;1.98;;;14.80;99.90;;;;;;5068300;28;20043;-60
2022/07/15 01:09:55;;;;;;;9.45;1.40;;;14.80;99.90;;;;;;5073901;28;20028;-60
2022/07/15 01:12:22;;;;;;;9.75;1.70;;;14.70;99.90;;;;;;5063407;28;20048;-60
2022/07/15 01:14:48;;;;;;;8.50;1.80;;;14.80;99.90;;;;;;5073653;28;20043;-61
2022/07/15 01:17:16;;;;;;;5.00;1.38;;;14.70;99.90;;;;;;5082404;28;20048;-60
2022/07/15 01:19:41;;;;;;;7.35;1.30;;;14.70;99.90;;;;;;5064582;28;20041;-61
2022/07/15 01:22:07;;;;;;;6.95;1.20;;;14.70;99.90;;;;;;5074378;28;20568;-61
2022/07/15 01:24:34;;;;;;;5.80;1.38;;;14.60;99.90;;;;;;5079500;28;20383;-61
2022/07/15 01:27:00;;;;;;;8.15;1.48;;;14.60;99.90;;;;;;5083232;28;20093;-60
2022/07/15 01:29:27;;;;;;;6.22;1.38;;;14.50;99.90;;;;;;5067461;28;20122;-61
2022/07/15 01:31:53;;;;;;;6.80;2.15;;;14.60;99.90;;;;;;5078066;28;20078;-60
2022/07/15 01:34:19;;;;;;;5.88;1.50;;;14.50;99.90;;;;;;5070515;28;20032;-60
2022/07/15 01:36:45;;;;;;;5.60;1.33;;;14.50;99.90;;;;;;5055058;28;20040;-60
2022/07/15 01:39:11;;;;;;;4.93;1.45;;;14.50;99.90;;;;;;5077621;28;20043;-60
2022/07/15 01:41:37;;;;;;;7.38;1.35;;;14.50;99.90;;;;;;5067590;28;20037;-58
2022/07/15 01:44:03;;;;;;;5.50;1.30;;;14.50;99.90;;;;;;5072426;28;20035;-61
2022/07/15 01:46:29;;;;;;;7.18;1.65;;;14.40;99.90;;;;;;5050117;28;20563;-61
2022/07/15 01:51:39;;;;;;;7.20;1.27;;;14.50;99.90;;;;;;5071459;28;20680;-61
2022/07/15 01:54:05;;;;;;;5.82;1.08;;;14.40;99.90;;;;;;5059853;28;20090;-60
2022/07/15 01:56:31;;;;;;;7.47;1.42;;;14.30;99.90;;;;;;5068969;28;20041;-61
2022/07/15 01:58:57;;;;;;;6.75;1.17;;;14.30;99.90;;;;;;5046945;28;20093;-60
2022/07/15 02:01:22;;;;;;;7.35;1.15;;;14.20;99.90;;;;;;5067274;28;20044;-60
2022/07/15 02:03:48;;;;;;;3.38;0.90;;;14.20;99.90;;;;;;5073382;28;20039;-59
2022/07/15 02:06:14;;;;;;;9.38;1.38;;;14.20;99.90;;;;;;5075908;28;20037;-59
2022/07/15 02:08:40;;;;;;;6.18;1.30;;;14.20;99.90;;;;;;5065516;28;20048;-59
2022/07/15 02:11:07;;;;;;;5.20;1.02;;;14.20;99.90;;;;;;5064601;28;20040;-61
2022/07/15 02:13:33;;;;;;;7.80;1.42;;;14.20;99.90;;;;;;5067384;28;20044;-59
2022/07/15 02:15:58;;;;;;;3.30;1.02;;;14.10;99.90;;;;;;5049040;28;20055;-61
2022/07/15 02:18:24;;;;;;;3.05;1.10;;;14.00;99.90;;;;;;5074928;28;20526;-60
2022/07/15 02:20:50;;;;;;;4.82;1.27;;;14.00;99.90;;;;;;5069367;28;20479;-60
2022/07/15 02:23:16;;;;;;;3.53;0.90;;;14.00;99.90;;;;;;5072572;28;20046;-60
2022/07/15 02:25:41;;;;;;;4.35;0.82;;;13.90;99.90;;;;;;5066411;28;20098;-59
2022/07/15 02:28:07;;;;;;;3.35;1.00;;;13.90;99.90;;;;;;5066858;28;20036;-59
2022/07/15 02:30:36;;;;;;;3.90;1.10;;;13.90;99.90;;;;;;5060721;28;20499;-60
2022/07/15 02:33:03;;;;;;;4.35;0.93;;;13.80;99.90;;;;;;5052093;28;20452;-59
2022/07/15 02:35:29;;;;;;;3.15;0.90;;;13.70;99.90;;;;;;5065095;28;20126;-61
2022/07/15 02:37:55;;;;;;;4.88;0.75;;;13.70;99.90;;;;;;5069980;28;20089;-60
2022/07/15 02:40:21;;;;;;;3.50;0.98;;;13.70;99.90;;;;;;5086036;28;20486;-60
2022/07/15 02:42:53;;;;;;;4.30;0.90;;;13.70;99.90;;;;;;5076542;28;20083;-59
2022/07/15 02:45:21;;;;;;;2.65;1.50;;;13.70;99.90;;;;;;5065465;28;20044;-60
2022/07/15 02:47:47;;;;;;;4.18;0.90;;;13.60;99.90;;;;;;5070044;28;20043;-60
2022/07/15 02:50:14;;;;;;;2.42;0.80;;;13.60;99.90;;;;;;5044371;28;20037;-60
2022/07/15 02:52:40;;;;;;;4.30;1.25;;;13.70;99.90;;;;;;5064494;28;20035;-60
2022/07/15 02:55:08;;;;;;;3.72;0.93;;;13.70;99.90;;;;;;5057733;28;20534;-59
2022/07/15 02:57:34;;;;;;;2.38;0.70;;;13.70;99.90;;;;;;5062253;28;20195;-60
2022/07/15 03:00:00;;;;;;;3.30;0.65;;;13.70;99.90;;;;;;5073617;28;20036;-60
2022/07/15 03:02:27;;;;;;;3.33;1.23;;;13.60;99.90;;;;;;5062699;28;20037;-61
2022/07/15 03:04:52;;;;;;;3.10;0.88;;;13.60;99.90;;;;;;5054087;28;20110;-60
2022/07/15 03:07:18;;;;;;;3.20;1.33;;;13.60;99.90;;;;;;5065832;28;20498;-60
2022/07/15 03:09:44;;;;;;;2.35;0.73;;;13.50;99.90;;;;;;5065849;28;20067;-61
2022/07/15 03:12:10;;;;;;;2.65;0.60;;;13.50;99.90;;;;;;5071025;28;20067;-61
2022/07/15 03:14:35;;;;;;;4.53;1.60;;;13.40;99.90;;;;;;5047809;28;20033;-60
2022/07/15 03:17:01;;;;;;;2.80;0.70;;;13.40;99.90;;;;;;5069122;28;20116;-60
2022/07/15 03:19:27;;;;;;;3.17;0.77;;;13.30;99.90;;;;;;5066443;28;20090;-60
2022/07/15 03:21:52;;;;;;;2.97;0.70;;;13.30;99.90;;;;;;5069095;28;20033;-60
2022/07/15 03:24:18;;;;;;;3.17;0.65;;;13.20;99.90;;;;;;5067620;28;20087;-59
2022/07/15 03:26:44;;;;;;;2.00;0.52;;;13.20;99.90;;;;;;5062259;28;20041;-61
2022/07/15 03:29:13;;;;;;;3.17;0.65;;;13.10;99.90;;;;;;5058193;28;20089;-60
2022/07/15 03:31:39;;;;;;;2.25;0.85;;;13.10;99.90;;;;;;5072060;28;20554;-61
2022/07/15 03:34:05;;;;;;;4.30;0.75;;;13.00;99.90;;;;;;5065060;28;20041;-61
2022/07/15 03:36:31;;;;;;;2.20;0.55;;;13.00;99.90;;;;;;5064775;28;20094;-62
2022/07/15 03:38:56;;;;;;;5.38;0.80;;;13.00;99.90;;;;;;5061465;28;20472;-61
2022/07/15 03:41:22;;;;;;;2.88;0.57;;;13.00;99.90;;;;;;5047098;28;20049;-61
2022/07/15 03:43:48;;;;;;;3.65;0.82;;;12.90;99.90;;;;;;5055135;28;20033;-61
2022/07/15 03:46:16;;;;;;;2.42;0.73;;;12.90;99.90;;;;;;5074315;28;20044;-61
2022/07/15 03:48:42;;;;;;;2.92;0.80;;;12.80;99.90;;;;;;5085972;28;20513;-62
2022/07/15 03:51:08;;;;;;;3.25;0.80;;;12.80;99.90;;;;;;5066124;28;20043;-61
2022/07/15 03:53:34;;;;;;;2.28;0.70;;;12.80;99.90;;;;;;5072006;28;20032;-61
2022/07/15 03:55:59;;;;;;;4.13;1.52;;;12.80;99.90;;;;;;5067208;28;20116;-61
2022/07/15 03:58:25;;;;;;;4.68;1.23;;;12.70;99.90;;;;;;5063712;28;20505;-60
2022/07/15 04:00:51;;;;;;;4.18;1.33;;;12.80;99.90;;;;;;5050179;28;20094;-61
2022/07/15 04:03:16;;;;;;;4.38;1.70;;;12.70;99.90;;;;;;5062947;28;20045;-62
2022/07/15 04:05:43;;;;;;;3.53;1.50;;;12.80;99.90;;;;;;5068029;28;20072;-62
2022/07/15 04:08:09;;;;;;;4.18;1.40;;;12.80;99.90;;;;;;5067361;28;20032;-61
2022/07/15 04:10:35;;;;;;;3.60;1.48;;;12.80;99.90;;;;;;5062716;28;20028;-61
2022/07/15 04:13:01;;;;;;;4.80;1.30;;;12.90;99.90;;;;;;5065776;28;20441;-61
2022/07/15 04:15:28;;;;;;;4.38;1.52;;;12.90;99.90;;;;;;5065968;28;20128;-59
2022/07/15 04:17:54;;;;;;;4.32;1.27;;;12.90;99.90;;;;;;5068685;28;20040;-61
2022/07/15 04:20:20;;;;;;;3.63;1.52;;;12.90;99.90;;;;;;5076635;28;20055;-60
2022/07/15 04:22:46;;;;;;;4.05;1.55;;;12.90;99.90;;;;;;5070936;28;20395;-62
2022/07/15 04:25:17;;;;;;;5.28;1.73;;;12.90;99.90;;;;;;5055292;28;20491;-62
2022/07/15 04:27:43;;;;;;;4.47;0.90;;;12.90;99.90;;;;;;5067240;28;20044;-61
2022/07/15 04:30:09;;;;;;;3.90;1.23;;;12.90;99.90;;;;;;5066319;28;20068;-61
2022/07/15 04:32:35;;;;;;;4.70;1.48;;;12.90;99.90;;;;;;5079868;28;20060;-61
2022/07/15 04:35:01;;;;;;;3.88;1.52;;;12.90;99.90;;;;;;5049755;28;20042;-61
2022/07/15 04:37:28;;;;;;;5.90;1.70;;;13.00;99.90;;;;;;5046479;28;20040;-61
2022/07/15 04:39:54;;;;;;;6.53;2.47;;;13.00;99.90;;;;;;5067693;28;20113;-62
2022/07/15 04:42:20;;;;;;;2.28;1.50;;;13.10;99.90;;;;;;5042140;28;20125;-61
2022/07/15 04:44:47;;;;;;;4.97;1.55;;;13.20;99.90;;;;;;5066168;28;20071;-60
2022/07/15 04:47:13;;;;;;;4.30;1.23;;;13.30;99.90;;;;;;5059547;28;20522;-60
2022/07/15 04:52:24;;;;;;;4.40;1.63;;;13.40;99.90;;;;;;5066167;28;20040;-59
2022/07/15 04:54:50;;;;;;;5.65;1.52;;;13.50;99.90;;;;;;5075055;28;20032;-60
2022/07/15 04:57:16;;;;;;;4.43;1.20;;;13.60;99.90;;;;;;5064323;28;20124;-60
2022/07/15 04:59:42;;;;;;;3.55;1.52;;;13.70;99.90;;;;;;5060734;28;20398;-60
2022/07/15 05:02:07;;;;;;;3.22;1.40;;;13.80;99.90;;;;;;5067343;28;20404;-60
2022/07/15 05:04:33;;;;;;;4.22;1.33;;;13.80;99.90;;;;;;5066806;28;20047;-60
2022/07/15 05:06:59;;;;;;;3.97;1.50;;;13.90;99.90;;;;;;5066587;28;20041;-61
2022/07/15 05:09:25;;;;;;;4.18;1.17;;;13.90;99.90;;;;;;5068739;28;20032;-60
2022/07/15 05:11:50;;;;;;;3.55;1.35;;;14.00;99.90;;;;;;5065673;28;20028;-60
2022/07/15 05:14:16;;;;;;;4.70;1.30;;;14.00;99.90;;;;;;5070055;28;20567;-60
2022/07/15 05:16:42;;;;;;;3.13;1.05;;;14.00;99.90;;;;;;5064032;28;20106;-60
2022/07/15 05:19:08;;;;;;;6.03;1.42;;;14.10;99.90;;;;;;5068521;28;20038;-60
2022/07/15 05:21:33;;;;;;;4.03;1.23;;;14.10;99.90;;;;;;5071144;28;20115;-60
2022/07/15 05:23:59;;;;;;;4.68;1.30;;;14.20;99.90;;;;;;5057220;28;20124;-59
2022/07/15 05:26:25;;;;;;;3.38;1.10;;;14.20;99.90;;;;;;5053999;28;20407;-60
2022/07/15 05:28:50;;;;;;;2.70;1.27;;;14.30;99.90;;;;;;5072586;28;20559;-59
2022/07/15 05:31:16;;;;;;;3.78;1.05;;;14.40;99.90;;;;;;5069880;28;20040;-60
2022/07/15 05:33:42;;;;;;;2.63;0.90;;;14.50;99.90;;;;;;5061506;28;20045;-60
2022/07/15 05:36:15;;;;;;;6.18;1.00;;;14.60;99.90;;;;;;5071988;28;20498;-59
2022/07/15 05:38:41;;;;;;;3.15;1.13;;;14.60;99.90;;;;;;5062375;28;20040;-60
2022/07/15 05:41:08;;;;;;;2.75;1.15;;;14.70;99.90;;;;;;5069236;28;20062;-59
2022/07/15 05:43:35;;;;;;;3.72;1.30;;;14.70;99.90;;;;;;5062191;28;20048;-59
2022/07/15 05:46:01;;;;;;;4.72;0.73;;;14.50;99.90;;;;;;5065187;28;20039;-59
2022/07/15 05:48:27;;;;;;;5.68;0.68;;;14.60;99.90;;;;;;5070540;28;20117;-61
2022/07/15 05:50:52;;;;;;;2.65;0.80;;;14.70;99.90;;;;;;5070880;28;20085;-60
2022/07/15 05:53:19;;;;;;;3.22;0.63;;;14.80;99.90;;;;;;5071149;28;20572;-60
2022/07/15 05:55:44;;;;;;;2.70;0.77;;;14.90;99.90;;;;;;5068475;28;20084;-60
2022/07/15 05:58:10;;;;;;;5.40;1.85;;;15.00;99.90;;;;;;5070121;28;20394;-60
2022/07/15 06:03:05;;;;;;;4.43;1.02;;;15.10;99.90;;;;;;4968268;28;20058;-57
2022/07/15 06:05:31;;;;;;;3.20;0.80;;;15.10;99.90;;;;;;4968923;28;20392;-54
2022/07/15 06:07:57;;;;;;;1.50;0.60;;;15.20;99.90;;;;;;4967779;28;20509;-53
2022/07/15 06:10:23;;;;;;;2.90;0.65;;;15.20;99.90;;;;;;4968902;28;20035;-56
2022/07/15 06:12:49;;;;;;;10.02;2.80;;;15.20;99.90;;;;;;4969247;28;20041;-54
2022/07/15 06:15:14;;;;;;;2.72;0.47;;;15.30;99.90;;;;;;4999345;28;20532;-56
2022/07/15 06:17:41;;;;;;;4.68;0.73;;;15.50;99.90;;;;;;4969018;28;20027;-54
2022/07/15 06:20:07;;;;;;;2.58;0.70;;;15.60;99.90;;;;;;4987890;28;20031;-55
2022/07/15 06:22:33;;;;;;;1.98;0.60;;;15.70;99.90;;;;;;4961108;28;20045;-54
2022/07/15 06:24:59;;;;;;;4.18;0.95;;;15.80;99.90;;;;;;4969067;28;20489;-56
2022/07/15 06:27:25;;;;;;;3.90;0.82;;;15.90;99.90;;;;;;4999648;28;20476;-56
2022/07/15 06:29:51;;;;;;;2.85;0.63;;;16.00;99.90;;;;;;4966367;28;20047;-55
2022/07/15 06:32:18;;;;;;;2.58;0.70;;;16.10;99.90;;;;;;4990424;28;20115;-53
2022/07/15 06:34:46;;;;;;;4.03;0.50;;;16.30;99.90;;;;;;4967273;28;20052;-53
2022/07/15 06:37:13;;;;;;;6.22;0.90;;;16.30;99.90;;;;;;4968299;28;20046;-57
2022/07/15 06:39:39;;;;;;;8.02;0.90;;;16.50;99.90;;;;;;4967146;28;20047;-57
2022/07/15 06:42:05;;;;;;;4.30;0.65;;;16.60;99.90;;;;;;4967963;28;20045;-56
2022/07/15 06:44:31;;;;;;;3.15;0.60;;;16.80;99.90;;;;;;4964182;28;20066;-57
2022/07/15 06:46:57;;;;;;;2.92;0.60;;;16.80;99.90;;;;;;4985959;28;20443;-57
2022/07/15 06:49:23;;;;;;;4.28;0.52;;;16.80;99.90;;;;;;4983312;28;20038;-57
2022/07/15 06:51:49;;;;;;;3.53;0.60;;;16.70;99.90;;;;;;4984610;28;20068;-57
2022/07/15 06:54:15;;;;;;;2.42;0.60;;;16.60;99.90;;;;;;4967761;28;20074;-55
2022/07/15 06:56:41;;;;;;;3.35;0.65;;;16.60;99.90;;;;;;4970052;28;20035;-57
2022/07/15 06:59:06;;;;;;;3.83;0.50;;;16.70;99.90;;;;;;4966674;28;20069;-56
2022/07/15 07:01:33;;;;;;;4.75;0.82;;;16.80;99.90;;;;;;4966923;28;20034;-57
2022/07/15 07:03:59;;;;;;;6.03;0.68;;;17.00;99.90;;;;;;4968782;28;20405;-57
2022/07/15 07:06:26;;;;;;;3.90;0.80;;;17.10;99.90;;;;;;4968641;28;20043;-55
2022/07/15 07:08:52;;;;;;;3.97;0.82;;;17.20;99.90;;;;;;4999582;28;20497;-58
2022/07/15 07:11:18;;;;;;;4.90;0.60;;;17.30;99.90;;;;;;4998132;28;20043;-56
2022/07/15 07:13:46;;;;;;;3.30;0.73;;;17.20;99.90;;;;;;4968319;28;20046;-58
2022/07/15 07:16:12;;;;;;;2.03;0.50;;;17.10;99.90;;;;;;4998911;28;20054;-55
2022/07/15 07:18:37;;;;;;;1.70;0.50;;;17.10;99.90;;;;;;4967453;28;20039;-56
2022/07/15 07:21:04;;;;;;;2.13;0.50;;;17.10;99.90;;;;;;4968926;28;20515;-58
2022/07/15 07:23:30;;;;;;;4.00;0.70;;;17.10;99.90;;;;;;4968453;28;20038;-55
2022/07/15 07:25:57;;;;;;;2.75;0.70;;;17.10;99.90;;;;;;4998951;28;20223;-56
2022/07/15 07:28:23;;;;;;;3.60;0.60;;;17.00;99.90;;;;;;4968202;28;20039;-57
2022/07/15 07:30:50;;;;;;;2.42;0.52;;;17.10;99.90;;;;;;4968013;28;20108;-56
2022/07/15 07:33:16;;;;;;;2.92;0.65;;;17.00;99.90;;;;;;4968582;28;20043;-55
2022/07/15 07:35:43;;;;;;;1.85;0.43;;;17.10;99.90;;;;;;4966599;28;20031;-55
2022/07/15 07:38:09;;;;;;;2.15;0.40;;;17.20;99.90;;;;;;4972132;28;20042;-57
2022/07/15 07:40:35;;;;;;;1.88;0.50;;;17.40;99.90;;;;;;4948529;28;20037;-57
2022/07/15 07:43:01;;;;;;;0.93;0.35;;;17.60;99.90;;;;;;4968795;28;20206;-55
2022/07/15 07:45:28;;;;;;;1.48;0.70;;;17.70;99.90;;;;;;4967503;28;20398;-55
2022/07/15 07:47:55;;;;;;;2.17;0.60;;;17.80;99.90;;;;;;4966951;28;20038;-56
2022/07/15 07:50:20;;;;;;;1.45;0.50;;;17.60;99.90;;;;;;4967377;28;20406;-53
2022/07/15 07:52:47;;;;;;;2.20;0.63;;;17.30;99.90;;;;;;4964112;28;20035;-55
2022/07/15 07:55:14;;;;;;;5.47;0.73;;;17.30;99.90;;;;;;4967420;28;20050;-58
2022/07/15 07:57:55;;;;;;;2.58;0.60;;;17.50;99.90;;;;;;4965409;28;20504;-55
2022/07/15 08:00:22;;;;;;;1.02;0.30;;;17.80;99.90;;;;;;4981976;28;20045;-55
2022/07/15 08:02:48;;;;;;;1.58;0.60;;;17.90;99.90;;;;;;4967907;28;20043;-56
2022/07/15 08:05:15;;;;;;;2.78;0.50;;;18.00;99.90;;;;;;4998365;28;20565;-57
2022/07/15 08:07:41;;;;;;;2.35;0.57;;;17.90;99.90;;;;;;4966155;28;20039;-58
2022/07/15 08:10:09;;;;;;;5.03;0.60;;;17.90;99.90;;;;;;4950740;28;20047;-54
2022/07/15 08:12:37;;;;;;;3.85;0.50;;;18.00;99.90;;;;;;4968080;28;20096;-56
2022/07/15 08:15:05;;;;;;;2.95;0.50;;;18.00;99.90;;;;;;4965702;28;20047;-56
2022/07/15 08:17:31;;;;;;;2.58;0.60;;;18.00;99.20;;;;;;4967137;28;20168;-56
2022/07/15 08:19:57;;;;;;;1.88;0.43;;;18.20;99.50;;;;;;4965953;28;20514;-56
2022/07/15 08:22:22;;;;;;;2.33;0.45;;;18.40;98.70;;;;;;4967803;28;20039;-57
2022/07/15 08:24:51;;;;;;;1.10;0.40;;;18.30;98.80;;;;;;4949959;28;20393;-53
2022/07/15 08:27:17;;;;;;;1.08;0.40;;;18.30;99.10;;;;;;4966250;28;20046;-52
2022/07/15 08:29:44;;;;;;;2.47;0.70;;;18.30;99.50;;;;;;4969235;28;20031;-52
2022/07/15 08:32:10;;;;;;;3.28;0.50;;;18.30;99.70;;;;;;4966372;28;20122;-52
2022/07/15 08:34:35;;;;;;;4.43;0.57;;;18.00;98.40;;;;;;4966311;28;20595;-57
2022/07/15 08:37:01;;;;;;;4.68;0.63;;;18.00;99.30;;;;;;4970802;28;20370;-51
2022/07/15 08:39:27;;;;;;;1.90;0.40;;;18.10;99.60;;;;;;4998331;28;20057;-52
2022/07/15 08:41:53;;;;;;;3.20;0.40;;;18.10;99.80;;;;;;4970046;28;20043;-55
2022/07/15 08:44:20;;;;;;;1.23;0.47;;;18.20;99.90;;;;;;4966948;28;20428;-55
2022/07/15 08:46:47;;;;;;;2.78;0.57;;;18.30;99.90;;;;;;4970645;28;20053;-52
2022/07/15 08:49:15;;;;;;;1.88;0.40;;;18.20;99.90;;;;;;4966257;28;20132;-56
2022/07/15 08:51:46;;;;;;;4.55;0.88;;;18.40;99.90;;;;;;4967086;28;20035;-53
2022/07/15 08:54:13;;;;;;;3.53;0.52;;;18.60;99.50;;;;;;4968887;28;20038;-58
2022/07/15 08:56:39;;;;;;;2.08;0.60;;;18.60;99.40;;;;;;4971072;28;20042;-56
2022/07/15 08:59:07;;;;;;;2.50;0.50;;;18.70;99.60;;;;;;4969121;28;20045;-54
2022/07/15 09:01:34;;;;;;;2.13;0.60;;;18.60;99.00;;;;;;4968036;28;20143;-58
2022/07/15 09:04:00;;;;;;;3.78;0.70;;;18.60;99.40;;;;;;4969943;28;20042;-56
2022/07/15 09:06:33;;;;;;;1.38;0.57;;;18.50;99.50;;;;;;4965103;28;20047;-55
2022/07/15 09:09:19;;;;;;;2.88;1.02;;;18.70;99.60;;;;;;4997998;28;20051;-54
2022/07/15 09:12:01;;;;;;;1.85;0.47;;;18.90;99.00;;;;;;5001961;28;20077;-55
2022/07/15 09:14:29;;;;;;;2.33;0.52;;;19.20;98.60;;;;;;4968791;28;20326;-55
2022/07/15 09:17:10;;;;;;;2.38;0.60;;;19.20;97.30;;;;;;4969341;28;20043;-52
2022/07/15 09:20:00;;;;;;;1.45;0.50;;;19.30;98.00;;;;;;4969217;28;20045;-57
2022/07/15 09:22:32;;;;;;;4.88;0.60;;;19.00;97.50;;;;;;4969519;28;20197;-53
2022/07/15 09:25:10;;;;;;;2.03;0.55;;;18.90;98.20;;;;;;4968465;28;20042;-55
2022/07/15 09:27:38;;;;;;;1.45;0.40;;;18.90;98.40;;;;;;4968564;28;20114;-57
2022/07/15 09:36:19;;;;;;;1.33;0.40;;;18.30;98.00;;;;;;4975147;28;20155;-53
2022/07/15 09:38:49;;;;;;;2.38;0.50;;;18.30;97.40;;;;;;4973834;28;20042;-53
2022/07/15 09:41:36;;;;;;;2.22;0.50;;;18.70;98.50;;;;;;4968374;28;20386;-51
2022/07/15 09:44:18;;;;;;;2.60;0.52;;;18.90;97.90;;;;;;4968315;28;20057;-52
2022/07/15 09:46:49;;;;;;;3.45;0.60;;;19.10;98.20;;;;;;5001212;28;20238;-56
2022/07/15 09:49:17;;;;;;;1.85;0.50;;;19.40;97.50;;;;;;4965743;28;20054;-55
2022/07/15 09:52:07;;;;;;;1.55;0.60;;;19.60;97.30;;;;;;4969914;28;20114;-56
2022/07/15 09:54:36;;;;;;;2.40;1.05;;;19.70;97.50;;;;;;4973400;28;20529;-59
2022/07/15 09:57:08;;;;;;;1.58;0.47;;;19.60;96.90;;;;;;4951311;28;20043;-52
2022/07/15 09:59:35;;;;;;;2.38;0.40;;;19.50;96.60;;;;;;5000583;28;20047;-53
2022/07/15 10:02:02;;;;;;;1.90;0.50;;;19.20;96.40;;;;;;4935596;28;20034;-50
2022/07/15 10:04:29;;;;;;;2.47;0.55;;;19.30;96.60;;;;;;4992447;28;20043;-53
2022/07/15 10:06:56;;;;;;;2.55;0.47;;;19.30;96.60;;;;;;4968096;28;20128;-53
2022/07/15 10:09:23;;;;;;;1.35;0.40;;;19.30;97.10;;;;;;4967277;28;20039;-58
2022/07/15 10:11:52;;;;;;;1.27;0.40;;;19.60;96.30;;;;;;4973240;28;20632;-53
2022/07/15 10:14:52;;;;;;;0.45;0.32;;;19.80;96.40;;;;;;4967656;28;20035;-54
2022/07/15 10:17:43;;;;;;;2.47;0.60;;;19.90;95.50;;;;;;4982828;28;20035;-53
2022/07/15 10:20:37;;;;;;;0.40;0.38;;;19.70;95.60;;;;;;4968280;28;20375;-52
2022/07/15 10:23:12;;;;;;;0.85;0.40;;;19.80;96.00;;;;;;4968758;28;20412;-53
2022/07/15 10:26:02;;;;;;;2.03;0.50;;;19.80;96.20;;;;;;4963165;28;20108;-53
2022/07/15 10:28:43;;;;;;;1.75;1.00;;;19.60;96.00;;;;;;4968585;28;20093;-52
2022/07/15 10:31:25;;;;;;;2.30;0.60;;;19.70;96.70;;;;;;4965350;28;20233;-56
2022/07/15 10:34:03;;;;;;;2.05;0.40;;;19.90;96.60;;;;;;4999159;28;20039;-55
2022/07/15 10:36:47;;;;;;;0.82;0.40;;;20.10;95.90;;;;;;4963880;28;20295;-57
2022/07/15 10:39:17;;;;;;;3.90;0.75;;;20.20;95.20;;;;;;4969720;28;20050;-52
2022/07/15 10:42:02;;;;;;;1.45;0.60;;;20.00;95.70;;;;;;4968815;28;20089;-54
2022/07/15 10:44:34;;;;;;;3.05;0.50;;;19.90;95.30;;;;;;4979512;28;20100;-51
2022/07/15 10:47:11;;;;;;;1.27;0.47;;;19.80;95.90;;;;;;4991197;28;20054;-55
2022/07/15 10:49:38;;;;;;;1.58;0.70;;;19.70;95.90;;;;;;4970642;28;20049;-55
2022/07/15 10:52:22;;;;;;;5.15;0.60;;;19.60;96.20;;;;;;4951092;28;20354;-57
2022/07/15 10:54:54;;;;;;;3.63;0.55;;;19.50;97.00;;;;;;4962956;28;20050;-50
2022/07/15 10:57:41;;;;;;;2.42;0.45;;;19.50;96.80;;;;;;4969092;28;20050;-53
2022/07/15 11:00:31;;;;;;;1.63;0.47;;;19.50;97.20;;;;;;4993507;28;20109;-52
2022/07/15 11:03:19;;;;;;;9.38;1.05;;;19.50;97.00;;;;;;4980125;28;20549;-52
2022/07/15 11:05:46;;;;;;;4.95;1.27;;;19.30;96.90;;;;;;4995190;28;20051;-50
2022/07/15 11:08:30;;;;;;;6.03;0.70;;;19.30;97.50;;;;;;4999244;28;20516;-51
2022/07/15 11:10:56;;;;;;;3.85;0.65;;;19.30;97.90;;;;;;4998252;28;20043;-54
2022/07/15 11:13:49;;;;;;;1.88;1.00;;;19.30;98.10;;;;;;4966128;28;20042;-57
2022/07/15 11:16:19;;;;;;;2.85;0.80;;;19.50;98.40;;;;;;4967544;28;20065;-53
2022/07/15 11:19:11;;;;;;;3.13;0.80;;;19.70;97.90;;;;;;4993668;28;20057;-53
2022/07/15 11:21:39;;;;;;;0.95;0.77;;;19.70;96.80;;;;;;4927183;28;20428;-52
2022/07/15 11:24:07;;;;;;;2.55;0.68;;;20.20;97.30;;;;;;4965052;28;20493;-57
2022/07/15 11:26:47;;;;;;;2.47;0.70;;;20.50;97.10;;;;;;4966105;28;20043;-54
2022/07/15 11:29:12;;;;;;;3.67;0.80;;;21.00;97.20;;;;;;4967330;28;20464;-54
2022/07/15 11:31:43;;;;;;;2.80;0.70;;;20.90;96.50;;;;;;4998852;28;20119;-53
2022/07/15 11:34:09;;;;;;;2.67;0.88;;;20.50;96.00;;;;;;4966467;28;20034;-53
2022/07/15 11:36:34;;;;;;;4.22;0.90;;;20.20;96.80;;;;;;4968067;28;20055;-51
2022/07/15 11:39:00;;;;;;;1.38;0.70;;;20.20;97.30;;;;;;4963135;28;20053;-50
2022/07/15 11:44:30;;;;;;;3.35;1.02;;;20.20;97.30;;;;;;4965816;28;20046;-54
2022/07/15 11:46:57;;;;;;;3.85;1.25;;;20.10;97.70;;;;;;4966842;28;20047;-57
2022/07/15 11:49:32;;;;;;;2.58;0.80;;;19.80;98.20;;;;;;4971504;28;20369;-56
2022/07/15 11:51:58;;;;;;;2.97;1.40;;;19.80;98.10;;;;;;4966396;28;20038;-55
2022/07/15 11:54:25;;;;;;;3.70;1.20;;;19.80;98.40;;;;;;4982593;28;20046;-53
2022/07/15 11:56:59;;;;;;;3.45;1.20;;;19.70;98.10;;;;;;4999147;28;20501;-55
2022/07/15 11:59:25;;;;;;;3.35;1.02;;;19.80;98.30;;;;;;4998240;28;20038;-55
2022/07/15 12:02:05;;;;;;;2.92;0.90;;;19.80;98.50;;;;;;4994059;28;20043;-55
2022/07/15 12:04:46;;;;;;;4.60;0.90;;;19.70;98.50;;;;;;5055628;23;20054;-81
2022/07/15 12:07:11;;;;;;;1.63;0.88;;;19.30;98.60;;;;;;5049085;28;20043;-80
2022/07/15 12:09:44;;;;;;;2.90;0.80;;;19.50;98.90;;;;;;4968114;28;20042;-80
2022/07/15 12:12:11;;;;;;;2.53;0.68;;;19.40;98.40;;;;;;4982921;28;20420;-80
2022/07/15 12:14:37;;;;;;;3.33;1.20;;;19.40;98.90;;;;;;4985897;28;20042;-81
2022/07/15 12:17:06;;;;;;;5.22;1.08;;;19.40;99.00;;;;;;4945120;28;20039;-82
2022/07/15 12:19:35;;;;;;;2.53;1.10;;;19.40;99.30;;;;;;4935082;28;20038;-80
2022/07/15 12:22:07;;;;;;;4.65;1.15;;;19.30;99.30;;;;;;4963784;28;20039;-80
2022/07/15 12:24:40;;;;;;;2.53;1.00;;;19.50;99.40;;;;;;4984110;28;20057;-80
2022/07/15 12:27:15;;;;;;;2.05;1.17;;;19.80;99.30;;;;;;4991730;28;20038;-81
2022/07/15 12:29:42;;;;;;;1.27;0.80;;;19.80;98.30;;;;;;4959718;28;20585;-79
2022/07/15 12:32:10;;;;;;;1.63;0.90;;;19.60;98.50;;;;;;4998298;28;20070;-79
2022/07/15 12:35:04;;;;;;;3.55;1.02;;;19.60;98.60;;;;;;4976144;28;20530;-79
2022/07/15 12:37:30;;;;;;;1.35;0.70;;;19.90;98.70;;;;;;4968470;28;20065;-80
2022/07/15 12:40:09;;;;;;;1.83;1.05;;;19.70;99.00;;;;;;5002736;28;20074;-81
2022/07/15 12:42:49;;;;;;;5.43;1.20;;;19.30;99.20;;;;;;4986248;28;20050;-79
2022/07/15 12:45:16;;;;;;;3.08;1.27;;;19.20;98.90;;;;;;4991705;28;20050;-82
2022/07/15 12:48:05;;;;;;;3.70;1.10;;;19.30;99.20;;;;;;4964425;28;20495;-80
2022/07/15 12:50:39;;;;;;;2.83;1.10;;;19.30;98.70;;;;;;4964105;28;20041;-79
2022/07/15 12:53:05;;;;;;;3.80;1.10;;;19.40;98.80;;;;;;4966264;28;20167;-81
2022/07/15 12:55:39;;;;;;;2.22;0.90;;;19.50;98.80;;;;;;5004790;28;20508;-80
2022/07/15 12:58:07;;;;;;;1.67;1.23;;;19.60;98.90;;;;;;4974407;28;20045;-81
2022/07/15 13:00:34;;;;;;;2.70;1.17;;;19.60;99.00;;;;;;4971228;28;20039;-80
2022/07/15 13:03:02;;;;;;;3.33;1.27;;;19.40;98.40;;;;;;4952926;28;20078;-79
2022/07/15 13:05:41;;;;;;;3.33;1.40;;;19.30;99.20;;;;;;4973963;28;20039;-81
2022/07/15 13:08:18;;;;;;;2.70;1.20;;;19.30;99.30;;;;;;4970782;28;20039;-81
2022/07/15 13:10:49;;;;;;;4.30;1.30;;;19.20;98.80;;;;;;5021657;28;20035;-81